Time;durP1;ratioP1;P1;durP2;ratioP2;P2;SDS_P1;SDS_P2;PMS_P1;PMS_P2;Temp;Humidity;BMP_temperature;BMP_pressure;BME280_temperature;BME280_humidity;BME280_pressure;Samples;Min_cycle;Max_cycle;Signal;HPM_P1;HPM_P2
2024/04/04 00:01:00;;;;;;;0.00;0.00;;;;;;;10.46;100.00;98795.44;5012127;28;20034;-75
2024/04/04 00:03:28;;;;;;;0.00;0.00;;;;;;;10.46;100.00;98806.38;5023911;28;20475;-75
2024/04/04 00:05:54;;;;;;;0.00;0.00;;;;;;;10.55;100.00;98810.00;5004010;28;20076;-75
2024/04/04 00:08:20;;;;;;;0.00;0.00;;;;;;;10.58;100.00;98789.47;5009044;28;20038;-73
2024/04/04 00:10:45;;;;;;;0.00;0.00;;;;;;;10.36;100.00;98751.94;5009015;28;20399;-74
2024/04/04 00:13:14;;;;;;;0.00;0.00;;;;;;;10.51;100.00;98778.13;5004584;28;20025;-74
2024/04/04 00:15:40;;;;;;;0.00;0.00;;;;;;;10.69;100.00;98803.72;5014755;28;20148;-75
2024/04/04 00:18:08;;;;;;;0.00;0.00;;;;;;;10.65;100.00;98789.84;5020970;28;20120;-74
2024/04/04 00:20:42;;;;;;;0.00;0.00;;;;;;;10.64;100.00;98790.97;5010747;28;20026;-76
2024/04/04 00:23:07;;;;;;;0.00;0.00;;;;;;;10.71;100.00;98801.50;4995070;28;20104;-74
2024/04/04 00:25:36;;;;;;;0.00;0.00;;;;;;;10.77;100.00;98798.31;4995075;28;20029;-74
2024/04/04 00:28:03;;;;;;;0.00;0.00;;;;;;;10.79;100.00;98804.31;5002934;28;20045;-73
2024/04/04 00:30:34;;;;;;;0.10;0.10;;;;;;;10.69;100.00;98792.78;5007337;28;20042;-74
2024/04/04 00:33:08;;;;;;;0.00;0.00;;;;;;;10.68;100.00;98785.72;5007177;28;20025;-76
2024/04/04 00:35:39;;;;;;;0.00;0.00;;;;;;;10.68;100.00;98788.44;4992897;28;20022;-75
2024/04/04 00:38:05;;;;;;;0.00;0.00;;;;;;;10.78;100.00;98790.94;4990036;28;20034;-74
2024/04/04 00:40:37;;;;;;;0.00;0.00;;;;;;;10.70;100.00;98773.31;5009834;28;20050;-74
2024/04/04 00:43:12;;;;;;;0.00;0.00;;;;;;;10.76;100.00;98779.50;5008013;28;20113;-75
2024/04/04 00:45:38;;;;;;;0.10;0.10;;;;;;;10.77;100.00;98778.38;5006155;28;21022;-72
2024/04/04 00:48:04;;;;;;;0.00;0.00;;;;;;;10.75;100.00;98764.22;5023715;28;20033;-74
2024/04/04 00:50:31;;;;;;;0.00;0.00;;;;;;;10.75;100.00;98758.75;5017417;28;20067;-74
2024/04/04 00:52:57;;;;;;;0.00;0.00;;;;;;;10.82;100.00;98770.88;5011434;28;20027;-74
2024/04/04 00:55:32;;;;;;;;;;;;;;;;;;;;;
2024/04/04 00:57:59;;;;;;;0.00;0.00;;;;;;;10.76;100.00;98749.41;5021023;28;20505;-73
2024/04/04 01:00:24;;;;;;;0.03;0.03;;;;;;;10.73;100.00;98752.78;5011627;28;20112;-73
2024/04/04 01:02:53;;;;;;;0.00;0.00;;;;;;;10.89;100.00;98764.97;5021982;28;20018;-74
2024/04/04 01:05:18;;;;;;;0.00;0.00;;;;;;;10.83;100.00;98767.03;4993965;28;20033;-73
2024/04/04 01:07:46;;;;;;;0.00;0.00;;;;;;;10.88;100.00;98766.13;4987188;28;20026;-74
2024/04/04 01:10:12;;;;;;;0.00;0.00;;;;;;;10.90;100.00;98761.13;4989940;28;20037;-75
2024/04/04 01:12:38;;;;;;;0.00;0.00;;;;;;;10.87;100.00;98750.00;5007516;28;20029;-75
2024/04/04 01:15:25;;;;;;;0.00;0.00;;;;;;;10.77;100.00;98740.13;5011082;28;20030;-75
2024/04/04 01:17:58;;;;;;;0.00;0.00;;;;;;;10.68;100.00;98720.91;4997713;28;20096;-75
2024/04/04 01:20:30;;;;;;;0.00;0.00;;;;;;;10.68;100.00;98714.63;5010727;28;20054;-74
2024/04/04 01:22:55;;;;;;;0.00;0.00;;;;;;;10.87;100.00;98739.88;5010920;28;20040;-75
2024/04/04 01:25:20;;;;;;;0.00;0.00;;;;;;;10.78;100.00;98714.41;5010528;28;20022;-75
2024/04/04 01:27:49;;;;;;;0.10;0.10;;;;;;;10.64;100.00;98696.13;5021036;28;20041;-74
2024/04/04 01:30:15;;;;;;;0.00;0.00;;;;;;;10.86;100.00;98730.03;5012941;28;20091;-76
2024/04/04 01:32:44;;;;;;;0.00;0.00;;;;;;;10.81;100.00;98730.97;5006552;28;20030;-75
2024/04/04 01:35:09;;;;;;;0.00;0.00;;;;;;;10.87;100.00;98756.28;5004515;28;20428;-74
2024/04/04 01:37:38;;;;;;;0.00;0.00;;;;;;;10.84;100.00;98751.44;4998733;28;20030;-74
2024/04/04 01:40:07;;;;;;;0.00;0.00;;;;;;;10.85;100.00;98746.75;4999232;28;20061;-73
2024/04/04 01:42:39;;;;;;;0.00;0.00;;;;;;;10.76;100.00;98733.00;4989081;28;20040;-73
2024/04/04 01:45:08;;;;;;;0.00;0.00;;;;;;;10.70;100.00;98726.06;4999049;28;20765;-75
2024/04/04 01:47:33;;;;;;;0.00;0.00;;;;;;;10.78;100.00;98747.19;5007981;28;20530;-74
2024/04/04 01:49:58;;;;;;;0.00;0.00;;;;;;;10.77;100.00;98740.13;5008623;28;20038;-74
2024/04/04 01:52:26;;;;;;;0.00;0.00;;;;;;;10.76;100.00;98735.75;5005848;28;20084;-74
2024/04/04 01:54:54;;;;;;;0.08;0.08;;;;;;;10.82;100.00;98750.94;4987311;28;20060;-74
2024/04/04 01:57:25;;;;;;;0.00;0.00;;;;;;;10.70;100.00;98729.59;5009302;28;20030;-74
2024/04/04 01:59:53;;;;;;;0.10;0.10;;;;;;;10.66;100.00;98723.16;5002155;28;20033;-74
2024/04/04 02:02:21;;;;;;;0.00;0.00;;;;;;;10.69;100.00;98722.53;4974061;28;20054;-74
2024/04/04 02:04:46;;;;;;;0.00;0.00;;;;;;;10.71;100.00;98724.94;4981901;28;20030;-73
2024/04/04 02:07:12;;;;;;;0.00;0.00;;;;;;;10.67;100.00;98710.28;4989715;28;20053;-74
2024/04/04 02:09:37;;;;;;;0.00;0.00;;;;;;;10.44;100.00;98680.16;4991356;28;20045;-74
2024/04/04 02:12:03;;;;;;;0.00;0.00;;;;;;;10.71;100.00;98724.94;4994068;28;20031;-74
2024/04/04 02:14:28;;;;;;;0.00;0.00;;;;;;;10.64;100.00;98715.25;5010008;28;20048;-74
2024/04/04 02:16:55;;;;;;;0.00;0.00;;;;;;;10.53;100.00;98681.06;4992534;28;20113;-74
2024/04/04 02:19:20;;;;;;;0.00;0.00;;;;;;;10.59;100.00;98696.22;5003708;28;20044;-74
2024/04/04 02:21:48;;;;;;;0.00;0.00;;;;;;;10.54;100.00;98688.16;5009297;28;20029;-74
2024/04/04 02:24:14;;;;;;;0.10;0.10;;;;;;;10.72;100.00;98716.44;5017044;28;20426;-75
2024/04/04 02:26:42;;;;;;;0.00;0.00;;;;;;;10.51;100.00;98672.34;5002477;28;20037;-74
2024/04/04 02:29:17;;;;;;;0.00;0.00;;;;;;;10.56;100.00;98683.19;5009555;28;20105;-74
2024/04/04 02:31:42;;;;;;;0.00;0.00;;;;;;;10.44;100.00;98671.97;5011699;28;20033;-74
2024/04/04 02:34:08;;;;;;;0.00;0.00;;;;;;;10.41;100.00;98667.13;4989824;28;20026;-74
2024/04/04 02:36:34;;;;;;;0.00;0.00;;;;;;;10.41;100.00;98661.66;5019423;28;20037;-74
2024/04/04 02:39:02;;;;;;;0.00;0.00;;;;;;;10.46;100.00;98656.06;4976587;28;20132;-74
2024/04/04 02:41:28;;;;;;;0.00;0.00;;;;;;;10.42;100.00;98668.75;4972850;28;20068;-75
2024/04/04 02:43:55;;;;;;;0.00;0.00;;;;;;;10.45;100.00;98651.72;4992789;28;20060;-74
2024/04/04 02:46:20;;;;;;;0.00;0.00;;;;;;;10.54;100.00;98671.75;4995798;28;20471;-74
2024/04/04 02:48:46;;;;;;;0.00;0.00;;;;;;;10.52;100.00;98663.03;5009112;28;20056;-73
2024/04/04 02:51:12;;;;;;;0.00;0.00;;;;;;;10.59;100.00;98665.34;4987166;28;20034;-74
2024/04/04 02:53:38;;;;;;;0.00;0.00;;;;;;;10.65;100.00;98655.91;5007872;28;20610;-74
2024/04/04 02:56:04;;;;;;;0.10;0.10;;;;;;;10.53;100.00;98655.63;5006536;28;20464;-74
2024/04/04 02:58:30;;;;;;;0.00;0.00;;;;;;;10.50;100.00;98672.66;4992596;28;20068;-73
2024/04/04 03:01:02;;;;;;;0.00;0.00;;;;;;;10.50;100.00;98692.63;5002871;28;20030;-75
2024/04/04 03:03:27;;;;;;;0.00;0.00;;;;;;;10.31;100.00;98668.13;5008801;28;20044;-75
2024/04/04 03:05:53;;;;;;;0.00;0.00;;;;;;;10.32;100.00;98672.47;4999903;28;20025;-74
2024/04/04 03:08:19;;;;;;;0.00;0.00;;;;;;;10.16;100.00;98650.13;4996491;28;20037;-75
2024/04/04 03:10:45;;;;;;;0.00;0.00;;;;;;;10.29;100.00;98675.81;5003221;28;20041;-75
2024/04/04 03:13:10;;;;;;;0.10;0.10;;;;;;;10.23;100.00;98694.25;5014515;28;20037;-74
2024/04/04 03:15:36;;;;;;;0.00;0.00;;;;;;;10.12;100.00;98665.53;4989619;28;20101;-74
2024/04/04 03:18:01;;;;;;;0.10;0.10;;;;;;;10.21;100.00;98690.22;5019216;28;20464;-74
2024/04/04 03:20:27;;;;;;;0.00;0.00;;;;;;;10.14;100.00;98690.63;5019863;28;20471;-76
2024/04/04 03:23:02;;;;;;;0.00;0.00;;;;;;;10.09;100.00;98666.13;4978818;28;20099;-76
2024/04/04 03:25:27;;;;;;;0.00;0.00;;;;;;;10.16;100.00;98660.25;5001500;28;20028;-76
2024/04/04 03:27:53;;;;;;;0.00;0.00;;;;;;;9.98;100.00;98660.09;5010497;28;20022;-75
2024/04/04 03:30:18;;;;;;;0.00;0.00;;;;;;;9.87;100.00;98658.69;4982990;28;20655;-76
2024/04/04 03:32:43;;;;;;;0.00;0.00;;;;;;;9.68;100.00;98642.41;4996175;28;20056;-76
2024/04/04 03:35:09;;;;;;;0.00;0.00;;;;;;;9.58;100.00;98640.72;4995466;28;21517;-74
2024/04/04 03:37:37;;;;;;;0.00;0.00;;;;;;;9.38;100.00;98620.06;5010183;28;20121;-74
2024/04/04 03:40:18;;;;;;;0.00;0.00;;;;;;;9.21;100.00;98602.38;4992114;28;20041;-75
2024/04/04 03:42:44;;;;;;;0.00;0.00;;;;;;;9.21;100.00;98610.56;5008995;28;20033;-75
2024/04/04 03:45:22;;;;;;;0.00;0.00;;;;;;;9.16;100.00;98616.09;4997182;28;20555;-75
2024/04/04 03:47:48;;;;;;;0.00;0.00;;;;;;;9.16;100.00;98632.47;5006649;28;20038;-74
2024/04/04 03:50:13;;;;;;;0.00;0.00;;;;;;;9.14;100.00;98637.44;5009045;28;20120;-75
2024/04/04 03:52:39;;;;;;;0.00;0.00;;;;;;;8.97;100.00;98626.28;4999623;28;20802;-75
2024/04/04 03:55:04;;;;;;;0.00;0.00;;;;;;;8.89;100.00;98658.56;5008954;28;20038;-73
2024/04/04 03:57:30;;;;;;;0.10;0.10;;;;;;;8.64;100.00;98626.25;5000408;28;20121;-74
2024/04/04 03:59:55;;;;;;;0.00;0.00;;;;;;;8.64;100.00;98651.59;5007157;28;20029;-74
2024/04/04 04:02:23;;;;;;;0.10;0.10;;;;;;;8.44;100.00;98641.84;4989790;28;20051;-73
2024/04/04 04:04:51;;;;;;;0.00;0.00;;;;;;;8.43;100.00;98639.38;5008474;28;20084;-75
2024/04/04 04:07:17;;;;;;;0.00;0.00;;;;;;;8.52;100.00;98670.31;5008259;28;20026;-75
2024/04/04 04:09:42;;;;;;;0.00;0.00;;;;;;;8.30;100.00;98663.50;5005912;28;20356;-75
2024/04/04 04:12:07;;;;;;;0.00;0.00;;;;;;;8.32;100.00;98660.50;4989668;28;20022;-76
2024/04/04 04:14:34;;;;;;;0.00;0.00;;;;;;;8.22;100.00;98650.56;5007888;28;20083;-75
2024/04/04 04:16:59;;;;;;;0.10;0.10;;;;;;;8.26;100.00;98678.00;5015486;28;20123;-75
2024/04/04 04:19:25;;;;;;;0.00;0.00;;;;;;;8.14;100.00;98660.19;4990501;28;20750;-76
2024/04/04 04:21:50;;;;;;;0.00;0.00;;;;;;;8.16;100.00;98668.88;5003542;28;20397;-75
2024/04/04 04:24:15;;;;;;;0.10;0.10;;;;;;;8.22;100.00;98683.25;4991720;28;20424;-75
2024/04/04 04:26:41;;;;;;;0.00;0.00;;;;;;;8.13;100.00;98658.59;4990467;28;20038;-76
2024/04/04 04:29:06;;;;;;;0.00;0.00;;;;;;;8.20;100.00;98686.22;4994012;28;20049;-76
2024/04/04 04:31:40;;;;;;;0.00;0.00;;;;;;;8.08;100.00;98679.63;4996731;28;20144;-76
2024/04/04 04:34:05;;;;;;;0.00;0.00;;;;;;;8.05;100.00;98686.44;5009413;28;20017;-76
2024/04/04 04:36:33;;;;;;;0.00;0.00;;;;;;;7.96;100.00;98674.59;5010193;28;20120;-77
2024/04/04 04:38:59;;;;;;;0.00;0.00;;;;;;;8.03;100.00;98694.06;5020282;28;20041;-76
2024/04/04 04:41:24;;;;;;;0.00;0.00;;;;;;;7.90;100.00;98681.19;5021172;28;20108;-76
2024/04/04 04:43:50;;;;;;;0.00;0.00;;;;;;;7.85;100.00;98698.38;5024079;28;20106;-75
2024/04/04 04:46:17;;;;;;;0.00;0.00;;;;;;;7.94;100.00;98704.00;5008987;28;20464;-75
2024/04/04 04:48:43;;;;;;;0.10;0.10;;;;;;;7.92;100.00;98717.91;5022332;28;20037;-75
2024/04/04 04:51:08;;;;;;;0.00;0.00;;;;;;;7.72;100.00;98697.16;5018141;28;20488;-75
2024/04/04 04:53:38;;;;;;;0.00;0.00;;;;;;;7.77;100.00;98708.00;5012579;28;20064;-75
2024/04/04 04:56:04;;;;;;;0.00;0.00;;;;;;;7.68;100.00;98701.56;5022333;28;20095;-75
2024/04/04 04:58:33;;;;;;;0.00;0.00;;;;;;;7.59;100.00;98716.91;5012033;28;20030;-75
2024/04/04 05:01:08;;;;;;;0.00;0.00;;;;;;;7.66;100.00;98730.97;5008636;28;20033;-75
2024/04/04 05:03:35;;;;;;;0.00;0.00;;;;;;;7.54;100.00;98714.25;4989373;28;20034;-75
2024/04/04 05:06:06;;;;;;;0.00;0.00;;;;;;;7.65;100.00;98741.06;5014034;28;20032;-75
2024/04/04 05:08:40;;;;;;;0.00;0.00;;;;;;;7.61;100.00;98739.22;5001836;28;20038;-75
2024/04/04 05:11:20;;;;;;;;;;;;;;;;;;;;;
2024/04/04 05:14:05;;;;;;;;;;;;;;;;;;;;;
2024/04/04 05:16:42;;;;;;;0.00;0.00;;;;;;;7.44;100.00;98728.75;5008885;28;20025;-76
2024/04/04 05:19:46;;;;;;;;;;;;;;;;;;;;;
2024/04/04 05:22:17;;;;;;;0.10;0.10;;;;;;;7.60;100.00;98721.25;5007580;28;20026;-76
2024/04/04 05:24:48;;;;;;;0.00;0.00;;;;;;;7.82;100.00;98753.41;5008539;28;20439;-75
2024/04/04 05:27:18;;;;;;;0.00;0.00;;;;;;;7.76;100.00;98752.63;5007937;28;20045;-75
2024/04/04 05:29:43;;;;;;;0.00;0.00;;;;;;;7.89;100.00;98774.84;5018653;28;20026;-75
2024/04/04 05:32:08;;;;;;;0.03;0.03;;;;;;;7.71;100.00;98741.81;5021396;28;20152;-74
2024/04/04 05:34:42;;;;;;;0.00;0.00;;;;;;;7.84;100.00;98762.91;5018899;28;20054;-74
2024/04/04 05:37:31;;;;;;;0.00;0.00;;;;;;;7.66;100.00;98752.75;5006816;28;20137;-75
2024/04/04 05:39:59;;;;;;;0.00;0.00;;;;;;;7.76;100.00;98760.81;5010822;28;20076;-77
2024/04/04 05:42:33;;;;;;;0.00;0.00;;;;;;;7.77;100.00;98759.72;5012438;28;20034;-77
2024/04/04 05:44:59;;;;;;;0.10;0.10;;;;;;;7.73;100.00;98739.63;5008110;28;20066;-77
2024/04/04 05:47:24;;;;;;;0.00;0.00;;;;;;;7.66;100.00;98744.59;5021435;28;20041;-78
2024/04/04 05:49:53;;;;;;;0.10;0.10;;;;;;;7.72;100.00;98761.66;5009347;28;20034;-77
2024/04/04 05:52:24;;;;;;;0.10;0.10;;;;;;;7.66;100.00;98755.47;4997910;28;20030;-77
2024/04/04 05:54:52;;;;;;;0.00;0.00;;;;;;;7.75;100.00;98761.88;5002274;28;20038;-77
2024/04/04 05:57:27;;;;;;;0.00;0.00;;;;;;;7.73;100.00;98746.97;4997438;28;20475;-78
2024/04/04 05:59:55;;;;;;;0.00;0.00;;;;;;;7.79;100.00;98749.34;5001461;28;20044;-76
2024/04/04 06:09:51;;;;;;;0.00;0.00;;;;;;;8.54;100.00;98805.16;5007681;28;20036;-80
2024/04/04 06:12:37;;;;;;;0.00;0.00;;;;;;;8.38;100.00;98773.69;4994946;28;20026;-77
2024/04/04 06:15:03;;;;;;;0.00;0.00;;;;;;;8.48;100.00;98768.16;5006260;28;20487;-77
2024/04/04 06:17:28;;;;;;;0.00;0.00;;;;;;;8.72;100.00;98798.09;5018548;28;20099;-77
2024/04/04 06:19:57;;;;;;;0.00;0.00;;;;;;;8.84;100.00;98788.66;4975758;28;20037;-77
2024/04/04 06:22:23;;;;;;;0.10;0.10;;;;;;;8.89;100.00;98783.97;5017785;28;20041;-77
2024/04/04 06:24:49;;;;;;;0.00;0.00;;;;;;;9.01;100.00;98797.16;5024050;28;20034;-77
2024/04/04 06:27:14;;;;;;;0.10;0.10;;;;;;;8.98;100.00;98781.38;5026563;28;20029;-79
2024/04/04 06:29:41;;;;;;;0.00;0.00;;;;;;;9.01;100.00;98779.97;5008674;28;20024;-78
2024/04/04 06:32:06;;;;;;;0.00;0.00;;;;;;;9.08;100.00;98796.75;4991024;28;20030;-79
2024/04/04 06:34:33;;;;;;;0.00;0.00;;;;;;;9.02;100.00;98792.50;5019621;28;20107;-77
2024/04/04 06:37:09;;;;;;;0.00;0.00;;;;;;;9.03;100.00;98799.56;5007810;28;20026;-77
2024/04/04 06:40:00;;;;;;;0.10;0.10;;;;;;;8.91;100.00;98772.75;5010625;28;20060;-78
2024/04/04 06:42:26;;;;;;;0.00;0.00;;;;;;;9.26;100.00;98809.56;4998728;28;20038;-76
2024/04/04 06:44:56;;;;;;;0.00;0.00;;;;;;;9.45;100.00;98814.19;5016228;28;20140;-75
2024/04/04 06:47:24;;;;;;;0.00;0.00;;;;;;;9.39;100.00;98782.66;5016601;28;20057;-75
2024/04/04 06:49:54;;;;;;;0.00;0.00;;;;;;;9.55;100.00;98789.47;5008526;28;20041;-75
2024/04/04 06:52:22;;;;;;;0.00;0.00;;;;;;;9.64;100.00;98796.94;5005305;28;20433;-74
2024/04/04 06:55:00;;;;;;;0.00;0.00;;;;;;;9.76;100.00;98810.94;5010260;28;20490;-74
2024/04/04 06:57:26;;;;;;;0.00;0.00;;;;;;;9.72;100.00;98799.81;5042008;28;20030;-75
2024/04/04 06:59:51;;;;;;;0.00;0.00;;;;;;;9.71;100.00;98802.84;4998880;28;20431;-75
2024/04/04 07:02:16;;;;;;;0.00;0.00;;;;;;;9.74;100.00;98818.63;5013213;28;20451;-75
2024/04/04 07:21:13;;;;;;;0.00;0.00;;;;;;;9.89;100.00;98788.31;5005068;28;19913;-77
2024/04/04 07:23:39;;;;;;;0.00;0.00;;;;;;;9.92;100.00;98815.00;5006648;28;20024;-77
2024/04/04 07:35:27;;;;;;;0.00;0.00;;;;;;;10.28;100.00;98844.41;5708527;23;20042;-78
2024/04/04 07:37:52;;;;;;;0.00;0.00;;;;;;;10.53;100.00;98839.59;4985210;28;20030;-77
2024/04/04 07:40:18;;;;;;;0.10;0.10;;;;;;;10.91;100.00;98885.81;4971507;28;20030;-77
2024/04/04 07:42:46;;;;;;;0.00;0.00;;;;;;;11.13;100.00;98843.25;4967407;28;20469;-77
2024/04/04 07:45:15;;;;;;;0.00;0.00;;;;;;;11.50;100.00;98860.44;4971662;28;20026;-77
2024/04/04 07:47:48;;;;;;;0.00;0.00;;;;;;;11.51;100.00;98851.09;4953098;28;20906;-79
2024/04/04 07:50:27;;;;;;;0.00;0.00;;;;;;;11.32;100.00;98843.06;4972001;28;20046;-76
2024/04/04 07:52:53;;;;;;;0.00;0.00;;;;;;;11.26;100.00;98825.97;4968541;28;20096;-77
2024/04/04 07:55:23;;;;;;;0.08;0.08;;;;;;;11.46;100.00;98853.94;4983717;28;20438;-76
2024/04/04 07:58:06;;;;;;;0.00;0.00;;;;;;;11.64;100.00;98855.72;4966287;28;20069;-75
2024/04/04 08:00:42;;;;;;;;;;;;;;;;;;;;;
2024/04/04 08:03:10;;;;;;;0.00;0.00;;;;;;;11.70;100.00;98868.16;4986663;28;20026;-76
2024/04/04 08:05:38;;;;;;;0.00;0.00;;;;;;;11.89;100.00;98889.06;4972003;28;20026;-77
2024/04/04 08:08:04;;;;;;;0.00;0.00;;;;;;;12.08;99.19;98899.06;4966836;28;21367;-76
2024/04/04 08:10:31;;;;;;;0.00;0.00;;;;;;;12.20;96.50;98886.38;4972742;28;20069;-76
2024/04/04 08:12:58;;;;;;;0.00;0.00;;;;;;;12.02;96.62;98876.44;4987820;28;20023;-76
2024/04/04 08:15:31;;;;;;;0.00;0.00;;;;;;;12.26;96.96;98917.19;4943290;28;20030;-76
2024/04/04 08:17:59;;;;;;;0.00;0.00;;;;;;;12.65;95.61;98912.06;4966675;28;20476;-76
2024/04/04 08:20:48;;;;;;;0.00;0.00;;;;;;;13.10;91.64;98929.13;4964501;28;20101;-78
2024/04/04 08:23:36;;;;;;;0.00;0.00;;;;;;;13.22;86.54;98923.03;4967512;28;20032;-77
2024/04/04 08:26:03;;;;;;;0.00;0.00;;;;;;;13.74;82.03;98938.78;4974336;28;20031;-78
2024/04/04 08:28:29;;;;;;;0.00;0.00;;;;;;;14.52;76.20;98939.78;4951435;28;20047;-77
2024/04/04 08:34:09;;;;;;;0.00;0.00;;;;;;;13.97;76.35;98974.31;4991505;28;20030;-74
2024/04/04 08:36:35;;;;;;;0.10;0.10;;;;;;;13.50;78.35;98960.41;4971985;28;20058;-74
2024/04/04 08:39:02;;;;;;;0.00;0.00;;;;;;;13.20;81.16;98965.63;4985975;28;20038;-74
2024/04/04 08:41:28;;;;;;;0.00;0.00;;;;;;;12.94;81.64;98982.84;4972045;28;20381;-74
2024/04/04 08:43:56;;;;;;;0.00;0.00;;;;;;;12.70;83.13;98962.09;4969596;28;20057;-74
2024/04/04 08:46:21;;;;;;;0.00;0.00;;;;;;;12.97;83.68;98998.69;4967278;28;20049;-75
2024/04/04 08:48:52;;;;;;;0.00;0.00;;;;;;;12.93;82.83;98983.97;4964342;28;20500;-74
2024/04/04 08:51:19;;;;;;;0.00;0.00;;;;;;;12.77;84.12;99001.97;4967309;28;20783;-74
2024/04/04 08:53:45;;;;;;;0.00;0.00;;;;;;;12.60;84.42;99006.25;4974565;28;20038;-74
2024/04/04 08:56:10;;;;;;;0.00;0.00;;;;;;;12.76;86.74;99009.38;4942838;28;20212;-74
2024/04/04 08:58:36;;;;;;;0.00;0.00;;;;;;;13.29;87.42;99013.16;4937999;28;20389;-75
2024/04/04 09:01:02;;;;;;;0.03;0.03;;;;;;;13.70;85.26;99006.47;4952802;28;20027;-72
2024/04/04 09:03:28;;;;;;;0.00;0.00;;;;;;;13.92;83.88;99015.72;4955004;28;20025;-74
2024/04/04 09:05:59;;;;;;;0.00;0.00;;;;;;;13.92;83.49;99019.25;4968843;28;20117;-73
2024/04/04 09:08:27;;;;;;;0.00;0.00;;;;;;;13.90;82.58;99021.53;4959346;28;20053;-73
2024/04/04 09:11:00;;;;;;;0.00;0.00;;;;;;;13.94;82.77;99027.19;4953774;28;20035;-74
2024/04/04 09:13:26;;;;;;;0.00;0.00;;;;;;;14.07;82.11;99020.72;4967757;28;20051;-75
2024/04/04 09:16:02;;;;;;;0.00;0.00;;;;;;;14.64;77.92;99024.41;4939357;28;20037;-73
2024/04/04 09:18:28;;;;;;;0.00;0.00;;;;;;;15.10;76.50;99042.06;4956552;28;20440;-74
2024/04/04 09:20:57;;;;;;;0.00;0.00;;;;;;;15.63;73.76;99030.78;4937893;28;20381;-74
2024/04/04 09:23:22;;;;;;;0.00;0.00;;;;;;;16.21;71.71;99044.84;4966273;28;20065;-75
2024/04/04 09:25:47;;;;;;;0.00;0.00;;;;;;;16.80;69.17;99038.25;4973675;28;20039;-74
2024/04/04 09:28:19;;;;;;;0.00;0.00;;;;;;;18.26;64.83;99034.97;4950675;28;20030;-73
2024/04/04 09:30:50;;;;;;;0.00;0.00;;;;;;;23.24;51.64;99055.50;4973878;28;20411;-74
2024/04/04 09:33:20;;;;;;;0.00;0.00;;;;;;;25.98;39.58;99048.81;4985716;28;20419;-74
2024/04/04 09:35:47;;;;;;;0.00;0.00;;;;;;;25.86;38.18;99060.44;4975432;28;20039;-74
2024/04/04 09:38:25;;;;;;;0.00;0.00;;;;;;;24.74;40.50;99060.38;4982581;28;20031;-72
2024/04/04 09:41:03;;;;;;;0.00;0.00;;;;;;;23.64;40.91;99042.63;4984386;28;21174;-76
2024/04/04 09:43:32;;;;;;;0.00;0.00;;;;;;;21.24;44.94;99067.16;4961149;28;20018;-77
2024/04/04 09:45:58;;;;;;;0.00;0.00;;;;;;;22.60;43.73;99059.19;4972245;28;20030;-78
2024/04/04 09:48:24;;;;;;;0.00;0.00;;;;;;;21.96;44.64;99043.25;4966648;28;20477;-77
2024/04/04 09:50:50;;;;;;;0.00;0.00;;;;;;;20.34;46.87;99066.25;4967913;28;20035;-76
2024/04/04 09:53:18;;;;;;;0.00;0.00;;;;;;;18.70;51.16;99063.88;4988341;28;20084;-75
2024/04/04 09:55:49;;;;;;;0.00;0.00;;;;;;;17.63;54.81;99068.63;4955106;28;20113;-75
2024/04/04 09:58:15;;;;;;;0.00;0.00;;;;;;;17.58;56.87;99075.19;4970654;28;20484;-75
2024/04/04 10:00:43;;;;;;;0.00;0.00;;;;;;;18.03;57.47;99075.38;4989303;28;20022;-74
2024/04/04 10:03:17;;;;;;;0.00;0.00;;;;;;;19.28;53.55;99075.31;4965417;28;20023;-76
2024/04/04 10:05:43;;;;;;;0.00;0.00;;;;;;;19.00;53.54;99084.50;4935377;28;20061;-73
2024/04/04 10:08:18;;;;;;;0.00;0.00;;;;;;;19.60;52.09;99078.06;4969803;28;20058;-74
2024/04/04 10:10:46;;;;;;;0.00;0.00;;;;;;;19.55;51.70;99075.56;4970983;28;20113;-76
2024/04/04 10:13:12;;;;;;;0.00;0.00;;;;;;;18.55;53.33;99084.81;4966567;28;20030;-74
2024/04/04 10:15:44;;;;;;;0.00;0.00;;;;;;;17.98;56.69;99084.75;4955895;28;20030;-75
2024/04/04 10:18:11;;;;;;;0.00;0.00;;;;;;;19.42;56.53;99065.72;4970965;28;20425;-75
2024/04/04 10:20:42;;;;;;;0.00;0.00;;;;;;;22.93;45.96;99091.00;4968330;28;20085;-75
2024/04/04 10:23:13;;;;;;;0.00;0.00;;;;;;;25.31;40.36;99086.88;4973863;28;20022;-75
2024/04/04 10:25:43;;;;;;;0.00;0.00;;;;;;;27.43;36.91;99076.97;4971063;28;20035;-75
2024/04/04 10:28:09;;;;;;;0.00;0.00;;;;;;;28.56;33.51;99081.00;4954499;28;20050;-75
2024/04/04 10:30:35;;;;;;;0.00;0.00;;;;;;;26.32;35.53;99081.94;4962315;28;20101;-76
2024/04/04 10:33:13;;;;;;;0.00;0.00;;;;;;;26.56;36.85;99096.25;4950771;28;20138;-74
2024/04/04 10:35:57;;;;;;;0.00;0.00;;;;;;;25.66;36.26;99074.06;4954242;28;20051;-76
2024/04/04 10:38:25;;;;;;;0.00;0.00;;;;;;;23.52;39.14;99105.13;4932774;28;20033;-73
2024/04/04 10:40:50;;;;;;;0.00;0.00;;;;;;;21.39;43.02;99084.88;4968559;28;20283;-75
2024/04/04 10:43:16;;;;;;;0.00;0.00;;;;;;;20.01;46.66;99098.06;4991198;28;20034;-75
2024/04/04 10:45:41;;;;;;;0.00;0.00;;;;;;;18.98;49.60;99092.38;4968607;28;20029;-75
2024/04/04 10:48:14;;;;;;;0.03;0.03;;;;;;;17.76;52.22;99088.78;4986334;28;20565;-75
2024/04/04 10:50:40;;;;;;;0.00;0.00;;;;;;;17.02;55.36;99078.47;4968290;28;20031;-75
2024/04/04 10:53:08;;;;;;;0.00;0.00;;;;;;;16.71;57.47;99081.69;4938560;28;20045;-77
2024/04/04 10:55:34;;;;;;;0.00;0.00;;;;;;;16.25;59.72;99081.59;4952651;28;20038;-75
2024/04/04 10:58:00;;;;;;;0.00;0.00;;;;;;;16.14;60.92;99091.44;4939103;28;20027;-74
2024/04/04 11:00:31;;;;;;;0.00;0.00;;;;;;;15.87;63.30;99113.66;4942492;28;20117;-74
2024/04/04 11:02:59;;;;;;;0.00;0.00;;;;;;;15.42;66.90;99094.91;4947744;28;20033;-75
2024/04/04 11:05:28;;;;;;;0.00;0.00;;;;;;;15.10;69.05;99069.59;4937451;28;20041;-76
2024/04/04 11:08:01;;;;;;;0.00;0.00;;;;;;;15.17;70.56;99075.41;4983350;28;20026;-76
2024/04/04 11:10:27;;;;;;;0.00;0.00;;;;;;;15.06;70.54;99076.91;4942620;28;20035;-75
2024/04/04 11:12:56;;;;;;;0.00;0.00;;;;;;;14.87;71.42;99093.00;4967524;28;20110;-75
2024/04/04 11:15:21;;;;;;;0.00;0.00;;;;;;;14.52;73.88;99101.25;4925041;28;20030;-75
2024/04/04 11:17:47;;;;;;;0.00;0.00;;;;;;;14.20;78.34;99089.63;4956547;28;20031;-74
2024/04/04 11:20:28;;;;;;;0.00;0.00;;;;;;;13.93;79.99;99088.75;4955995;28;20085;-77
2024/04/04 11:23:03;;;;;;;0.00;0.00;;;;;;;14.01;82.81;99122.91;4986382;28;20041;-77
2024/04/04 11:25:36;;;;;;;0.00;0.00;;;;;;;13.83;87.24;99108.28;4972923;28;20042;-77
2024/04/04 11:28:02;;;;;;;0.00;0.00;;;;;;;14.04;93.38;99128.56;4986199;28;20033;-76
2024/04/04 11:30:27;;;;;;;0.00;0.00;;;;;;;16.15;92.15;99129.72;4967282;28;20042;-75
2024/04/04 11:32:52;;;;;;;0.00;0.00;;;;;;;17.12;81.19;99129.69;4990107;28;20037;-71
2024/04/04 11:35:18;;;;;;;0.00;0.00;;;;;;;17.17;80.32;99135.03;4965794;28;20101;-70
2024/04/04 11:37:43;;;;;;;0.00;0.00;;;;;;;17.76;81.48;99138.53;4956400;28;20409;-74
2024/04/04 11:40:09;;;;;;;0.00;0.00;;;;;;;19.66;69.94;99137.63;4944219;28;20027;-74
2024/04/04 11:42:35;;;;;;;0.00;0.00;;;;;;;19.73;62.71;99120.38;4944048;28;20128;-75
2024/04/04 11:45:03;;;;;;;0.00;0.00;;;;;;;18.59;66.15;99130.81;4947107;28;20114;-76
2024/04/04 11:47:48;;;;;;;0.00;0.00;;;;;;;17.54;66.24;99132.31;4966809;28;20042;-75
2024/04/04 11:50:14;;;;;;;0.00;0.00;;;;;;;16.90;68.94;99131.69;4966776;28;20023;-74
2024/04/04 11:52:39;;;;;;;0.00;0.00;;;;;;;17.16;68.18;99169.31;4961003;28;20093;-74
2024/04/04 11:55:18;;;;;;;0.08;0.08;;;;;;;17.50;66.47;99147.16;4957436;28;20087;-79
2024/04/04 11:57:44;;;;;;;0.00;0.00;;;;;;;18.05;65.10;99114.59;4962525;28;20381;-76
2024/04/04 12:00:11;;;;;;;0.00;0.00;;;;;;;21.79;51.38;99151.13;4981902;28;20033;-77
2024/04/04 12:02:37;;;;;;;0.00;0.00;;;;;;;25.19;44.20;99169.94;4948534;28;20410;-76
2024/04/04 12:05:18;;;;;;;;;;;;;;;;;;;;;
2024/04/04 12:07:57;;;;;;;0.00;0.00;;;;;;;25.16;41.29;99141.94;4975471;28;20035;-77
2024/04/04 12:10:25;;;;;;;0.00;0.00;;;;;;;22.23;46.98;99138.66;4966118;28;20076;-77
2024/04/04 12:13:00;;;;;;;;;;;;;;;;;;;;;
2024/04/04 12:15:30;;;;;;;0.00;0.00;;;;;;;18.55;59.63;99165.88;4985011;28;20029;-78
2024/04/04 12:20:50;;;;;;;0.00;0.00;;;;;;;20.24;56.02;99141.78;4951953;28;20053;-77
2024/04/04 12:23:15;;;;;;;0.00;0.00;;;;;;;22.21;49.87;99131.88;4952872;28;20034;-77
2024/04/04 12:25:45;;;;;;;0.00;0.00;;;;;;;22.95;47.39;99144.38;4963648;28;20022;-76